Etusivu
METAR-TAF:

METAR-TAF

Lentoasemat :

Wahoo, Nebraska, Yhdysvallat

Leveyspiiri: 41-14-26N, Pituuspiiri: 096-35-40W, korkeus merenpinnasta: 373 m

Tämänhetkinen sää

Tämä raportti tehtiin 33 minuuttia sitten, kello 13.55 UTC
Tuuli 6 kn pohjoisesta
Lämpötila 18°C
Kosteus 83%
Ilmanpaine 1023 hPa
Näkyvyys: 16.1 km
Pilvistä 6000 ft:n korkeudessa

METAR: KAHQ 191355Z AUTO 36006KT 10SM OVC060 18/15 A3022 RMK AO2 T01820146

Aika: 09:28 (14:28 UTC)


TAF: puuttuu

Säähavainnot ja -ennusteet yli 4000 lentoasemalta (METAR- ja TAF-raportit).

Käytössä olevat sääasemat on merkitty karttaan keltaisilla ja punaisilla pisteillä.

Aseta hiiri pisteen päälle nähdäksesi sääaseman nimen.

Klikkaa sitten nähdäksesi säähavainnot ja -ennusteet.

Kartan vaihtaminen: klikkaa mustalla rastilla varustettuja vihreitä pisteitä, niin voit zoomata sisään; viivalla varustettua vihreää pistettä, niin voit zoomata ulos tai vihreitä nuolia, niin pääset viereisille kartoille.


METAR-TAF: